Time;durP1;ratioP1;P1;durP2;ratioP2;P2;SDS_P1;SDS_P2;PMS_P1;PMS_P2;Temp;Humidity;BMP_temperature;BMP_pressure;BME280_temperature;BME280_humidity;BME280_pressure;Samples;Min_cycle;Max_cycle;Signal;HPM_P1;HPM_P2
2023/07/24 00:00:19;;;;;;;0.30;0.30;;;19.90;99.90;;;;;;4402294;32;20069;-73
2023/07/24 00:02:45;;;;;;;0.25;0.25;;;19.90;99.90;;;;;;4403816;32;20129;-73
2023/07/24 00:05:10;;;;;;;0.40;0.40;;;19.90;99.90;;;;;;4412332;32;20503;-73
2023/07/24 00:07:36;;;;;;;0.30;0.30;;;19.80;99.90;;;;;;4413579;32;20069;-74
2023/07/24 00:10:02;;;;;;;0.20;0.20;;;19.90;99.90;;;;;;4415623;32;20090;-73
2023/07/24 00:12:28;;;;;;;1.08;0.50;;;19.90;99.90;;;;;;4405323;32;20171;-73
2023/07/24 00:14:53;;;;;;;1.25;0.30;;;19.80;99.90;;;;;;4398299;32;20553;-73
2023/07/24 00:17:19;;;;;;;1.00;0.43;;;19.80;99.90;;;;;;4403320;32;20094;-74
2023/07/24 00:19:44;;;;;;;0.25;0.25;;;19.90;99.90;;;;;;4415255;32;20105;-75
2023/07/24 00:22:10;;;;;;;3.65;0.65;;;19.90;99.90;;;;;;4415796;32;20070;-74
2023/07/24 00:24:35;;;;;;;0.20;0.20;;;19.90;99.90;;;;;;4410345;32;20066;-74
2023/07/24 00:27:01;;;;;;;0.30;0.30;;;20.00;99.90;;;;;;4402794;32;20584;-76
2023/07/24 00:29:27;;;;;;;0.30;0.30;;;20.00;99.90;;;;;;4402713;32;20095;-74
2023/07/24 00:31:52;;;;;;;0.30;0.30;;;20.00;99.90;;;;;;4412066;32;20073;-75
2023/07/24 00:34:18;;;;;;;1.27;0.95;;;19.90;99.90;;;;;;4399110;32;20133;-73
2023/07/24 00:36:43;;;;;;;0.30;0.30;;;20.00;99.90;;;;;;4400449;32;20062;-73
2023/07/24 00:39:09;;;;;;;0.25;0.25;;;20.00;99.90;;;;;;4403559;32;20070;-74
2023/07/24 00:41:34;;;;;;;0.52;0.52;;;20.00;99.90;;;;;;4412295;32;20066;-73
2023/07/24 00:44:01;;;;;;;0.40;0.40;;;20.00;99.90;;;;;;4410030;32;20077;-75
2023/07/24 00:46:28;;;;;;;0.65;0.62;;;20.00;99.90;;;;;;4401965;32;20132;-74
2023/07/24 00:48:54;;;;;;;0.30;0.30;;;20.00;99.90;;;;;;4400166;32;20066;-75
2023/07/24 00:51:19;;;;;;;0.40;0.40;;;20.00;99.90;;;;;;4400369;32;20075;-73
2023/07/24 00:53:47;;;;;;;0.35;0.35;;;20.00;99.90;;;;;;4411785;32;20069;-74
2023/07/24 00:56:13;;;;;;;0.80;0.73;;;19.90;99.90;;;;;;4414721;32;20077;-75
2023/07/24 00:58:38;;;;;;;0.50;0.50;;;20.00;99.90;;;;;;4400264;32;20069;-75
2023/07/24 01:01:04;;;;;;;4.65;0.95;;;19.90;99.90;;;;;;4398657;32;20484;-73
2023/07/24 01:03:33;;;;;;;0.98;0.40;;;19.90;99.90;;;;;;4401682;32;20110;-73
2023/07/24 01:06:01;;;;;;;2.15;0.80;;;19.90;99.90;;;;;;4409591;32;20112;-74
2023/07/24 01:08:27;;;;;;;0.30;0.30;;;19.90;99.90;;;;;;4413578;32;20069;-74
2023/07/24 01:10:53;;;;;;;0.40;0.40;;;19.90;99.90;;;;;;4408802;32;20058;-73
2023/07/24 01:13:23;;;;;;;0.47;0.40;;;19.90;99.90;;;;;;4409431;32;20128;-75
2023/07/24 01:15:59;;;;;;;0.30;0.30;;;19.90;99.90;;;;;;4409277;32;20093;-74
2023/07/24 01:18:26;;;;;;;1.80;1.10;;;19.90;99.90;;;;;;4402218;32;20517;-73
2023/07/24 01:20:56;;;;;;;0.30;0.30;;;19.90;99.90;;;;;;4407862;32;20058;-74
2023/07/24 01:23:29;;;;;;;0.35;0.35;;;19.90;99.90;;;;;;4405916;32;20121;-75
2023/07/24 01:25:58;;;;;;;0.25;0.25;;;19.90;99.90;;;;;;4412805;32;20424;-74
2023/07/24 01:28:24;;;;;;;0.35;0.35;;;19.80;99.90;;;;;;4413894;32;20081;-73
2023/07/24 01:30:49;;;;;;;1.17;0.57;;;19.80;99.90;;;;;;4411190;32;20477;-75
2023/07/24 01:33:15;;;;;;;4.57;0.43;;;19.90;99.90;;;;;;4408031;32;20086;-76
2023/07/24 01:35:43;;;;;;;0.88;0.43;;;19.90;99.90;;;;;;4409643;32;20062;-74
2023/07/24 01:38:11;;;;;;;0.30;0.30;;;19.80;99.90;;;;;;4414334;32;20120;-73
2023/07/24 01:40:38;;;;;;;0.40;0.40;;;19.90;99.90;;;;;;4412861;32;20054;-73
2023/07/24 01:43:04;;;;;;;0.30;0.30;;;19.90;99.90;;;;;;4414622;32;20069;-73
2023/07/24 01:45:29;;;;;;;0.43;0.43;;;19.90;99.90;;;;;;4411391;32;20129;-75
2023/07/24 01:47:55;;;;;;;0.50;0.47;;;19.90;99.90;;;;;;4401126;32;20070;-74
2023/07/24 01:50:20;;;;;;;0.35;0.35;;;19.90;99.90;;;;;;4405001;32;20065;-74
2023/07/24 01:52:46;;;;;;;1.75;0.70;;;19.90;99.90;;;;;;4399692;32;20065;-73
2023/07/24 01:55:11;;;;;;;0.30;0.30;;;19.80;99.90;;;;;;4400284;32;20180;-74
2023/07/24 01:57:37;;;;;;;0.30;0.30;;;19.80;99.90;;;;;;4411846;32;20066;-73
2023/07/24 02:00:02;;;;;;;0.37;0.37;;;19.80;99.90;;;;;;4408606;32;20074;-74
2023/07/24 02:02:28;;;;;;;0.60;0.60;;;19.80;99.90;;;;;;4403777;32;20078;-74
2023/07/24 02:04:53;;;;;;;1.85;1.00;;;19.80;99.90;;;;;;4406685;32;20077;-75
2023/07/24 02:07:19;;;;;;;0.30;0.30;;;19.70;99.90;;;;;;4409537;32;20456;-74
2023/07/24 02:09:44;;;;;;;0.20;0.20;;;19.80;99.90;;;;;;4408726;32;20125;-75
2023/07/24 02:12:10;;;;;;;0.40;0.40;;;19.80;99.90;;;;;;4414599;32;20082;-74
2023/07/24 02:14:35;;;;;;;0.30;0.30;;;19.90;99.90;;;;;;4396600;32;20090;-73
2023/07/24 02:17:01;;;;;;;0.30;0.30;;;19.90;99.90;;;;;;4410134;32;20074;-73
2023/07/24 02:19:26;;;;;;;0.30;0.30;;;19.80;99.90;;;;;;4415822;32;20129;-74
2023/07/24 02:21:52;;;;;;;0.28;0.28;;;19.80;99.90;;;;;;4403283;32;20069;-73
2023/07/24 02:24:18;;;;;;;0.30;0.30;;;19.90;99.90;;;;;;4410765;32;20117;-74
2023/07/24 02:26:44;;;;;;;0.70;0.32;;;19.90;99.90;;;;;;4401794;32;20069;-75
2023/07/24 02:29:09;;;;;;;0.22;0.22;;;19.90;99.90;;;;;;4405163;32;20069;-74
2023/07/24 02:31:35;;;;;;;0.50;0.50;;;19.90;99.90;;;;;;4402681;32;20141;-73
2023/07/24 02:34:00;;;;;;;0.40;0.40;;;19.90;99.90;;;;;;4410445;32;20066;-73
2023/07/24 02:36:26;;;;;;;0.20;0.20;;;19.90;99.90;;;;;;4402452;32;20098;-74
2023/07/24 02:38:52;;;;;;;0.20;0.20;;;20.00;99.90;;;;;;4405155;32;20558;-72
2023/07/24 02:41:18;;;;;;;1.45;0.85;;;19.90;99.90;;;;;;4405398;32;20514;-72
2023/07/24 02:43:44;;;;;;;0.30;0.30;;;19.90;99.90;;;;;;4409576;32;20592;-74
2023/07/24 02:46:10;;;;;;;0.35;0.35;;;19.90;99.90;;;;;;4404635;32;20066;-73
2023/07/24 02:48:36;;;;;;;0.30;0.30;;;19.90;99.90;;;;;;4409642;32;20124;-74
2023/07/24 02:51:02;;;;;;;0.50;0.50;;;20.00;99.90;;;;;;4411518;32;20529;-75
2023/07/24 02:53:28;;;;;;;0.37;0.37;;;20.00;99.90;;;;;;4405048;32;20070;-73
2023/07/24 02:55:53;;;;;;;1.65;0.80;;;20.00;99.90;;;;;;4413827;32;20078;-73
2023/07/24 02:58:19;;;;;;;0.40;0.40;;;20.00;99.90;;;;;;4409030;32;20082;-73
2023/07/24 03:00:44;;;;;;;0.30;0.30;;;20.00;99.90;;;;;;4409399;32;20070;-73
2023/07/24 03:03:11;;;;;;;0.57;0.57;;;20.00;99.90;;;;;;4406479;32;20066;-72
2023/07/24 03:05:36;;;;;;;1.35;1.10;;;20.00;99.90;;;;;;4413296;32;20069;-75
2023/07/24 03:08:04;;;;;;;0.30;0.30;;;20.00;99.90;;;;;;4414118;32;20442;-74
2023/07/24 03:10:29;;;;;;;0.40;0.40;;;20.00;99.90;;;;;;4400428;32;20070;-75
2023/07/24 03:12:55;;;;;;;0.30;0.30;;;20.00;99.90;;;;;;4406957;32;20129;-74
2023/07/24 03:15:21;;;;;;;0.28;0.28;;;20.00;99.90;;;;;;4413265;32;20188;-74
2023/07/24 03:17:47;;;;;;;0.37;0.37;;;20.10;99.90;;;;;;4409866;32;20114;-73
2023/07/24 03:20:16;;;;;;;0.28;0.28;;;20.00;99.90;;;;;;4410624;32;20069;-74
2023/07/24 03:22:42;;;;;;;0.45;0.45;;;20.00;99.90;;;;;;4408578;32;20070;-74
2023/07/24 03:25:08;;;;;;;0.30;0.30;;;20.00;99.90;;;;;;4413579;32;20069;-73
2023/07/24 03:27:33;;;;;;;0.30;0.30;;;20.00;99.90;;;;;;4413287;32;20061;-75
2023/07/24 03:29:59;;;;;;;0.20;0.20;;;20.00;99.90;;;;;;4412668;32;20493;-73
2023/07/24 03:32:25;;;;;;;0.30;0.30;;;20.00;99.90;;;;;;4407204;32;20066;-74
2023/07/24 03:34:50;;;;;;;0.30;0.30;;;20.00;99.90;;;;;;4398097;32;20086;-73
2023/07/24 03:37:16;;;;;;;0.40;0.40;;;20.00;99.90;;;;;;4401982;32;20125;-73
2023/07/24 03:39:41;;;;;;;0.30;0.30;;;20.00;99.90;;;;;;4396507;32;20074;-74
2023/07/24 03:42:09;;;;;;;1.00;0.85;;;20.00;99.90;;;;;;4399573;32;20427;-74
2023/07/24 03:44:35;;;;;;;0.30;0.30;;;19.90;99.90;;;;;;4412778;32;20078;-76
2023/07/24 03:47:00;;;;;;;0.20;0.20;;;20.00;99.90;;;;;;4413240;32;20199;-75
2023/07/24 03:49:26;;;;;;;0.30;0.30;;;19.90;99.90;;;;;;4412422;32;20077;-73
2023/07/24 03:51:51;;;;;;;0.40;0.40;;;20.00;99.90;;;;;;4412871;32;20513;-75
2023/07/24 03:54:17;;;;;;;0.35;0.35;;;20.00;99.90;;;;;;4412800;32;20073;-73
2023/07/24 03:56:42;;;;;;;0.30;0.30;;;20.00;99.90;;;;;;4410987;32;20065;-74
2023/07/24 03:59:08;;;;;;;0.57;0.57;;;19.90;99.90;;;;;;4410943;32;20526;-73
2023/07/24 04:01:33;;;;;;;0.20;0.20;;;19.90;99.90;;;;;;4412432;32;20090;-75
2023/07/24 04:03:59;;;;;;;0.40;0.40;;;19.90;99.90;;;;;;4412694;32;20069;-74
2023/07/24 04:06:25;;;;;;;0.20;0.20;;;19.90;99.90;;;;;;4413178;32;20065;-73
2023/07/24 04:08:50;;;;;;;0.40;0.40;;;19.90;99.90;;;;;;4411471;32;20069;-74
2023/07/24 04:11:16;;;;;;;0.60;0.60;;;19.90;99.90;;;;;;4412695;32;20546;-74
2023/07/24 04:13:41;;;;;;;0.47;0.47;;;20.00;99.90;;;;;;4412241;32;20062;-74
2023/07/24 04:16:07;;;;;;;0.20;0.20;;;20.00;99.90;;;;;;4412993;32;20082;-74
2023/07/24 04:18:32;;;;;;;0.40;0.30;;;20.00;99.90;;;;;;4401177;32;20182;-74
2023/07/24 04:20:57;;;;;;;0.40;0.40;;;20.00;99.90;;;;;;4397381;32;20087;-73
2023/07/24 04:23:23;;;;;;;0.37;0.37;;;20.00;99.90;;;;;;4401646;32;20122;-73
2023/07/24 04:25:50;;;;;;;0.30;0.30;;;20.00;99.90;;;;;;4408557;32;20099;-73
2023/07/24 04:28:16;;;;;;;0.30;0.30;;;20.00;99.90;;;;;;4408840;32;20112;-74
2023/07/24 04:30:41;;;;;;;0.30;0.30;;;19.90;99.90;;;;;;4405030;32;20066;-74
2023/07/24 04:33:07;;;;;;;0.20;0.20;;;20.00;99.90;;;;;;4411145;32;20079;-75
2023/07/24 04:35:32;;;;;;;0.30;0.30;;;20.10;99.90;;;;;;4422159;32;20069;-74
2023/07/24 04:37:58;;;;;;;0.77;0.52;;;20.10;99.90;;;;;;4404386;32;20066;-74
2023/07/24 04:40:24;;;;;;;0.30;0.30;;;20.10;99.90;;;;;;4409415;32;20070;-74
2023/07/24 04:42:49;;;;;;;0.28;0.28;;;20.20;99.90;;;;;;4410915;32;20070;-74
2023/07/24 04:45:15;;;;;;;2.53;0.52;;;20.20;99.90;;;;;;4414015;32;20077;-74
2023/07/24 04:47:40;;;;;;;0.20;0.20;;;20.30;99.90;;;;;;4411868;32;20109;-74
2023/07/24 04:50:06;;;;;;;0.28;0.28;;;20.30;99.90;;;;;;4412247;32;20069;-73
2023/07/24 04:52:32;;;;;;;0.20;0.20;;;20.40;99.90;;;;;;4403977;32;20070;-73
2023/07/24 04:54:57;;;;;;;0.40;0.40;;;20.40;99.90;;;;;;4415067;32;20094;-74
2023/07/24 04:57:23;;;;;;;0.30;0.30;;;20.40;99.90;;;;;;4406443;32;20065;-74
2023/07/24 04:59:48;;;;;;;0.20;0.20;;;20.40;99.90;;;;;;4413692;32;20084;-74
2023/07/24 05:02:14;;;;;;;0.20;0.20;;;20.50;99.90;;;;;;4413054;32;20404;-74
2023/07/24 05:04:39;;;;;;;0.20;0.20;;;20.50;99.90;;;;;;4411273;32;20430;-75
2023/07/24 05:07:05;;;;;;;0.22;0.22;;;20.50;99.90;;;;;;4402495;32;20081;-73
2023/07/24 05:09:30;;;;;;;0.30;0.30;;;20.50;99.90;;;;;;4414323;32;20485;-73
2023/07/24 05:11:56;;;;;;;0.25;0.25;;;20.60;99.90;;;;;;4415619;32;20575;-74
2023/07/24 05:14:21;;;;;;;0.30;0.30;;;20.60;99.90;;;;;;4407912;32;20129;-74
2023/07/24 05:16:47;;;;;;;0.20;0.20;;;20.70;99.90;;;;;;4414045;32;20081;-74
2023/07/24 05:19:12;;;;;;;0.90;0.30;;;20.70;99.90;;;;;;4415022;32;20078;-76
2023/07/24 05:21:38;;;;;;;0.22;0.22;;;20.70;99.90;;;;;;4414896;32;20117;-74
2023/07/24 05:24:03;;;;;;;0.25;0.25;;;20.80;99.90;;;;;;4414844;32;20069;-74
2023/07/24 05:26:29;;;;;;;0.20;0.20;;;20.80;99.90;;;;;;4413816;32;20128;-74
2023/07/24 05:28:54;;;;;;;3.10;0.75;;;20.80;99.90;;;;;;4413830;32;20073;-74
2023/07/24 05:31:20;;;;;;;0.30;0.30;;;20.80;99.90;;;;;;4414387;32;20540;-75
2023/07/24 05:33:46;;;;;;;0.20;0.20;;;20.70;99.90;;;;;;4407636;32;20061;-74
2023/07/24 05:36:11;;;;;;;0.30;0.30;;;20.80;99.90;;;;;;4405758;32;20062;-75
2023/07/24 05:38:37;;;;;;;0.20;0.20;;;20.80;99.90;;;;;;4414553;32;20391;-75
2023/07/24 05:41:03;;;;;;;0.20;0.20;;;20.90;99.90;;;;;;4411650;32;20495;-75
2023/07/24 05:43:30;;;;;;;0.20;0.20;;;20.90;99.90;;;;;;4414054;32;20477;-75
2023/07/24 05:45:57;;;;;;;0.30;0.30;;;20.90;99.90;;;;;;4414051;32;20077;-75
2023/07/24 05:48:23;;;;;;;0.30;0.30;;;21.00;99.90;;;;;;4411263;32;20082;-74
2023/07/24 05:50:49;;;;;;;0.30;0.30;;;21.00;99.90;;;;;;4413667;32;20074;-74
2023/07/24 05:53:15;;;;;;;0.30;0.30;;;21.00;99.90;;;;;;4415557;32;20065;-75
2023/07/24 05:55:42;;;;;;;0.20;0.20;;;21.10;99.90;;;;;;4414746;32;20069;-75
2023/07/24 05:58:08;;;;;;;0.22;0.22;;;21.10;99.90;;;;;;4413066;32;20240;-74
2023/07/24 06:00:36;;;;;;;0.20;0.20;;;21.10;99.90;;;;;;4414166;32;20070;-76
2023/07/24 06:03:03;;;;;;;0.35;0.25;;;21.10;99.90;;;;;;4412310;32;20562;-74
2023/07/24 06:05:29;;;;;;;0.30;0.30;;;21.10;99.90;;;;;;4417258;32;20089;-74
2023/07/24 06:07:55;;;;;;;0.35;0.35;;;21.20;99.90;;;;;;4413086;32;20587;-75
2023/07/24 06:10:20;;;;;;;0.20;0.20;;;21.30;99.90;;;;;;4414402;32;20070;-75
2023/07/24 06:12:47;;;;;;;0.37;0.37;;;21.30;99.90;;;;;;4413279;32;20061;-75
2023/07/24 06:15:13;;;;;;;0.13;0.13;;;21.30;99.90;;;;;;4414024;32;20066;-74
2023/07/24 06:17:38;;;;;;;0.20;0.20;;;21.30;99.90;;;;;;4408953;32;20065;-74
2023/07/24 06:20:05;;;;;;;0.20;0.20;;;21.30;99.90;;;;;;4414115;32;20098;-73
2023/07/24 06:22:30;;;;;;;0.20;0.20;;;21.40;99.90;;;;;;4409041;32;20134;-75
2023/07/24 06:24:56;;;;;;;0.20;0.20;;;21.50;99.90;;;;;;4408093;32;20065;-74
2023/07/24 06:27:21;;;;;;;0.20;0.20;;;21.50;99.90;;;;;;4410020;32;20074;-76
2023/07/24 06:29:47;;;;;;;1.35;0.52;;;21.60;99.90;;;;;;4407273;32;20074;-75
2023/07/24 06:32:12;;;;;;;0.20;0.20;;;21.70;99.90;;;;;;4408304;32;20074;-74
2023/07/24 06:34:38;;;;;;;0.57;0.22;;;21.70;99.90;;;;;;4406003;32;20070;-74
2023/07/24 06:37:03;;;;;;;1.23;0.25;;;21.70;99.90;;;;;;4407079;32;20130;-74
2023/07/24 06:39:29;;;;;;;0.10;0.10;;;21.80;99.90;;;;;;4413741;32;20058;-74
2023/07/24 06:41:55;;;;;;;0.20;0.20;;;21.80;99.90;;;;;;4410820;32;20082;-74
2023/07/24 06:44:21;;;;;;;0.20;0.20;;;21.90;99.90;;;;;;4413348;32;20117;-75
2023/07/24 06:46:46;;;;;;;0.20;0.20;;;22.00;99.90;;;;;;4413564;32;20131;-74
2023/07/24 06:49:13;;;;;;;3.10;1.17;;;22.10;99.90;;;;;;4411845;32;20502;-75
2023/07/24 06:51:38;;;;;;;0.20;0.20;;;22.20;99.90;;;;;;4407785;32;20099;-73
2023/07/24 06:54:05;;;;;;;0.40;0.40;;;22.30;99.90;;;;;;4413875;32;20065;-74
2023/07/24 06:56:30;;;;;;;0.20;0.20;;;22.40;99.90;;;;;;4411704;32;20192;-74
2023/07/24 06:58:56;;;;;;;0.20;0.20;;;22.40;99.90;;;;;;4400881;32;20101;-77
2023/07/24 07:01:21;;;;;;;0.28;0.28;;;22.30;99.90;;;;;;4401522;32;20061;-74
2023/07/24 07:03:47;;;;;;;0.20;0.20;;;22.30;99.90;;;;;;4409540;32;20073;-76
2023/07/24 07:06:12;;;;;;;0.20;0.20;;;22.40;99.90;;;;;;4401138;32;20078;-75
2023/07/24 07:08:39;;;;;;;0.30;0.30;;;22.50;99.90;;;;;;4413225;32;20510;-75
2023/07/24 07:11:05;;;;;;;0.55;0.30;;;22.50;99.90;;;;;;4412391;32;20065;-75
2023/07/24 07:13:30;;;;;;;0.28;0.28;;;22.50;99.90;;;;;;4411672;32;20086;-74
2023/07/24 07:15:56;;;;;;;0.20;0.20;;;22.60;99.90;;;;;;4398488;32;20070;-73
2023/07/24 07:18:22;;;;;;;0.20;0.20;;;22.60;99.90;;;;;;4405107;32;20073;-75
2023/07/24 07:20:49;;;;;;;0.20;0.20;;;22.60;99.90;;;;;;4399064;32;20093;-76
2023/07/24 07:23:15;;;;;;;0.10;0.10;;;22.70;99.90;;;;;;4401488;32;20502;-75
2023/07/24 07:25:43;;;;;;;0.73;0.73;;;22.80;99.90;;;;;;4409996;32;20075;-75
2023/07/24 07:28:08;;;;;;;0.20;0.20;;;22.80;99.90;;;;;;4409808;32;20077;-73
2023/07/24 07:30:34;;;;;;;0.20;0.20;;;22.90;99.90;;;;;;4408039;32;20431;-75
2023/07/24 07:32:59;;;;;;;0.40;0.40;;;22.90;99.90;;;;;;4412423;32;20248;-73
2023/07/24 07:35:25;;;;;;;0.30;0.30;;;23.00;99.90;;;;;;4413485;32;20492;-74
2023/07/24 07:37:50;;;;;;;0.30;0.30;;;23.00;99.90;;;;;;4410861;32;20077;-74
2023/07/24 07:40:16;;;;;;;0.15;0.15;;;23.10;99.90;;;;;;4412696;32;20540;-76
2023/07/24 07:42:41;;;;;;;0.47;0.20;;;23.20;99.90;;;;;;4400475;32;20066;-74
2023/07/24 07:45:07;;;;;;;0.35;0.35;;;23.30;99.90;;;;;;4398256;32;20550;-74
2023/07/24 07:47:33;;;;;;;0.22;0.22;;;23.30;99.90;;;;;;4408590;32;20130;-74
2023/07/24 07:49:58;;;;;;;0.10;0.10;;;23.40;99.90;;;;;;4413199;32;20089;-75
2023/07/24 07:52:24;;;;;;;0.37;0.37;;;23.50;99.90;;;;;;4413313;32;20568;-75
2023/07/24 07:54:49;;;;;;;0.17;0.15;;;23.60;99.90;;;;;;4412979;32;20085;-73
2023/07/24 07:57:15;;;;;;;0.10;0.10;;;23.70;99.90;;;;;;4410394;32;20090;-75
2023/07/24 07:59:41;;;;;;;0.20;0.20;;;23.80;99.90;;;;;;4398382;32;20205;-73
2023/07/24 08:02:06;;;;;;;0.10;0.10;;;23.90;99.90;;;;;;4408690;32;20173;-74
2023/07/24 08:04:32;;;;;;;0.20;0.20;;;24.00;99.90;;;;;;4413200;32;20501;-73
2023/07/24 08:06:58;;;;;;;0.30;0.30;;;23.90;99.90;;;;;;4409330;32;20070;-75
2023/07/24 08:09:24;;;;;;;0.37;0.37;;;23.90;99.90;;;;;;4411615;32;20065;-74
2023/07/24 08:11:51;;;;;;;0.98;0.47;;;23.90;99.90;;;;;;4413240;32;20062;-74
2023/07/24 08:14:17;;;;;;;0.22;0.22;;;24.00;99.90;;;;;;4418724;32;20078;-75
2023/07/24 08:16:42;;;;;;;0.32;0.30;;;24.10;99.90;;;;;;4400205;32;20078;-75
2023/07/24 08:19:07;;;;;;;0.28;0.28;;;24.30;99.90;;;;;;4421404;32;20121;-74
2023/07/24 08:21:33;;;;;;;0.10;0.10;;;24.50;99.90;;;;;;4412971;32;20081;-74
2023/07/24 08:23:59;;;;;;;0.25;0.22;;;24.50;99.90;;;;;;4413219;32;20075;-75
2023/07/24 08:26:26;;;;;;;1.58;0.65;;;24.60;99.90;;;;;;4411673;32;20470;-75
2023/07/24 08:28:52;;;;;;;0.10;0.10;;;24.50;99.90;;;;;;4413818;32;20113;-74
2023/07/24 08:31:17;;;;;;;0.20;0.20;;;24.40;99.90;;;;;;4412032;32;20521;-75
2023/07/24 08:33:43;;;;;;;0.22;0.20;;;24.30;99.90;;;;;;4415503;32;20083;-75
2023/07/24 08:36:08;;;;;;;0.20;0.20;;;24.20;99.90;;;;;;4416679;32;20580;-74
2023/07/24 08:38:35;;;;;;;0.25;0.25;;;24.20;99.90;;;;;;4415111;32;20177;-74
2023/07/24 08:41:03;;;;;;;0.15;0.15;;;24.20;99.90;;;;;;4415762;32;20065;-74
2023/07/24 08:43:30;;;;;;;0.37;0.37;;;24.00;99.90;;;;;;4415199;32;20065;-73
2023/07/24 08:45:57;;;;;;;0.20;0.20;;;24.10;99.90;;;;;;4415436;32;20066;-73
2023/07/24 08:48:23;;;;;;;0.20;0.20;;;24.10;99.90;;;;;;4415643;32;20138;-74
2023/07/24 08:50:51;;;;;;;0.15;0.15;;;24.30;99.90;;;;;;4415000;32;20127;-75
2023/07/24 08:53:19;;;;;;;0.30;0.30;;;24.40;99.90;;;;;;4415358;32;20057;-74
2023/07/24 08:55:48;;;;;;;0.20;0.20;;;24.40;99.90;;;;;;4415262;32;20446;-74
2023/07/24 08:58:14;;;;;;;0.28;0.28;;;24.40;99.90;;;;;;4409434;32;20161;-74
2023/07/24 09:00:39;;;;;;;0.77;0.22;;;24.40;99.90;;;;;;4409884;32;20085;-75
2023/07/24 09:03:05;;;;;;;0.28;0.28;;;24.40;99.90;;;;;;4416190;32;20529;-73
2023/07/24 09:05:31;;;;;;;0.20;0.20;;;24.50;99.90;;;;;;4402320;32;20066;-73
2023/07/24 09:07:56;;;;;;;0.30;0.22;;;24.60;99.90;;;;;;4408235;32;20078;-73
2023/07/24 09:10:26;;;;;;;0.13;0.13;;;24.70;99.90;;;;;;4415312;32;20073;-74
2023/07/24 09:12:51;;;;;;;0.10;0.10;;;24.70;99.90;;;;;;4415539;32;20070;-75
2023/07/24 09:15:17;;;;;;;0.10;0.10;;;24.70;99.90;;;;;;4416415;32;20066;-74
2023/07/24 09:17:51;;;;;;;0.10;0.10;;;24.60;99.90;;;;;;4414582;32;20085;-74
2023/07/24 09:20:17;;;;;;;0.10;0.10;;;24.80;99.90;;;;;;4400607;32;20070;-74
2023/07/24 09:22:51;;;;;;;0.10;0.10;;;24.90;99.90;;;;;;4406850;32;20517;-73
2023/07/24 09:25:17;;;;;;;0.10;0.10;;;25.00;99.90;;;;;;4415290;32;20521;-73
2023/07/24 09:27:44;;;;;;;0.10;0.10;;;25.00;99.90;;;;;;4415334;32;20057;-73
2023/07/24 09:30:19;;;;;;;0.10;0.10;;;25.00;99.90;;;;;;4406391;32;20518;-74
2023/07/24 09:32:52;;;;;;;0.37;0.37;;;24.90;99.90;;;;;;4415328;32;20062;-74
2023/07/24 09:35:19;;;;;;;0.20;0.20;;;25.20;99.90;;;;;;4411928;32;20133;-73
2023/07/24 09:37:45;;;;;;;0.10;0.10;;;25.20;99.90;;;;;;4421431;32;20447;-73
2023/07/24 09:40:11;;;;;;;0.10;0.10;;;25.20;99.90;;;;;;4421868;32;20070;-74
2023/07/24 09:42:38;;;;;;;0.25;0.20;;;25.10;99.90;;;;;;4415215;32;20077;-73
2023/07/24 09:45:04;;;;;;;0.20;0.15;;;25.20;99.90;;;;;;4414980;32;20428;-73
2023/07/24 09:47:31;;;;;;;0.10;0.10;;;25.20;99.90;;;;;;4414304;32;20506;-72
2023/07/24 09:49:57;;;;;;;0.10;0.10;;;25.30;99.90;;;;;;4407848;32;20073;-73
2023/07/24 09:52:27;;;;;;;0.10;0.10;;;25.50;99.90;;;;;;4414599;32;20420;-73
2023/07/24 09:55:22;;;;;;;0.10;0.10;;;25.80;99.90;;;;;;4412432;32;20066;-74
2023/07/24 09:57:49;;;;;;;0.10;0.10;;;25.90;99.90;;;;;;4393675;32;20089;-73
2023/07/24 10:00:15;;;;;;;0.20;0.20;;;26.10;99.90;;;;;;4408058;32;20469;-75
2023/07/24 10:02:41;;;;;;;0.30;0.30;;;26.20;99.90;;;;;;4410071;32;20128;-74
2023/07/24 10:05:07;;;;;;;2.92;1.08;;;26.30;99.90;;;;;;4408455;32;20117;-74
2023/07/24 10:07:33;;;;;;;0.10;0.10;;;26.50;99.90;;;;;;4407035;32;20553;-78
2023/07/24 10:09:58;;;;;;;0.32;0.32;;;26.50;99.90;;;;;;4421098;32;20105;-73
2023/07/24 10:12:27;;;;;;;0.20;0.20;;;26.40;99.90;;;;;;4414858;32;20118;-74
2023/07/24 10:14:55;;;;;;;1.37;0.25;;;26.30;99.90;;;;;;4411333;32;20099;-74
2023/07/24 10:17:37;;;;;;;0.10;0.10;;;26.60;99.90;;;;;;4412741;32;20073;-75
2023/07/24 10:20:07;;;;;;;0.10;0.10;;;26.80;99.90;;;;;;4393670;32;20069;-76
2023/07/24 10:22:33;;;;;;;0.30;0.30;;;27.00;99.90;;;;;;4413049;32;20070;-74
2023/07/24 10:24:59;;;;;;;0.20;0.20;;;27.00;99.70;;;;;;4412967;32;20075;-74
2023/07/24 10:27:25;;;;;;;0.20;0.20;;;27.10;99.90;;;;;;4413450;32;20090;-74
2023/07/24 10:29:59;;;;;;;1.55;0.13;;;27.20;99.60;;;;;;4402968;32;20081;-73
2023/07/24 10:32:25;;;;;;;3.97;1.17;;;27.30;99.20;;;;;;4413089;32;20479;-74
2023/07/24 10:35:00;;;;;;;2.65;0.50;;;27.40;99.10;;;;;;4405288;32;20113;-74
2023/07/24 10:37:34;;;;;;;0.15;0.15;;;27.30;98.90;;;;;;4405724;32;20180;-73
2023/07/24 10:40:00;;;;;;;0.10;0.10;;;27.40;99.10;;;;;;4409838;32;20066;-72
2023/07/24 10:42:25;;;;;;;0.47;0.20;;;27.60;98.80;;;;;;4399469;32;20085;-72
2023/07/24 10:45:10;;;;;;;0.20;0.20;;;27.70;98.60;;;;;;4423390;32;20124;-74
2023/07/24 10:47:35;;;;;;;0.20;0.20;;;27.70;97.30;;;;;;4410700;32;20085;-74
2023/07/24 10:50:02;;;;;;;2.70;1.00;;;27.70;96.90;;;;;;4411980;32;20533;-73
2023/07/24 10:52:32;;;;;;;0.08;0.08;;;27.60;96.90;;;;;;4399877;32;20090;-73
2023/07/24 10:55:01;;;;;;;0.10;0.10;;;27.50;96.60;;;;;;4404237;32;20086;-73
2023/07/24 10:57:28;;;;;;;0.20;0.20;;;27.40;96.70;;;;;;4401371;32;20533;-74
2023/07/24 10:59:54;;;;;;;0.17;0.17;;;27.70;96.30;;;;;;4410771;32;20126;-74
2023/07/24 11:02:19;;;;;;;0.20;0.20;;;28.10;96.50;;;;;;4401360;32;20066;-73
2023/07/24 11:04:46;;;;;;;0.10;0.10;;;28.40;95.20;;;;;;4404060;32;20093;-73
2023/07/24 11:07:11;;;;;;;0.17;0.17;;;28.80;94.50;;;;;;4408933;32;20086;-74
2023/07/24 11:09:39;;;;;;;0.10;0.10;;;28.90;94.60;;;;;;4413032;32;20428;-73
2023/07/24 11:12:22;;;;;;;0.30;0.30;;;28.70;95.00;;;;;;4402464;32;20530;-73
2023/07/24 11:14:49;;;;;;;0.77;0.40;;;28.60;94.80;;;;;;4413518;32;20149;-74
2023/07/24 11:17:15;;;;;;;0.10;0.10;;;28.80;94.60;;;;;;4413021;32;20431;-74
2023/07/24 11:19:41;;;;;;;0.20;0.20;;;28.60;94.50;;;;;;4412994;32;20157;-73
2023/07/24 11:22:07;;;;;;;0.10;0.10;;;28.40;94.80;;;;;;4409597;32;20069;-73
2023/07/24 11:24:33;;;;;;;2.75;0.43;;;28.20;94.80;;;;;;4407666;32;20073;-73
2023/07/24 11:26:58;;;;;;;1.15;0.30;;;28.10;95.40;;;;;;4413591;32;20070;-73
2023/07/24 11:29:23;;;;;;;0.20;0.20;;;28.00;95.30;;;;;;4410515;32;20142;-75
2023/07/24 11:31:56;;;;;;;2.72;0.40;;;27.80;95.20;;;;;;4410469;32;20590;-75
2023/07/24 11:34:22;;;;;;;0.30;0.20;;;27.80;95.50;;;;;;4409321;32;20066;-74
2023/07/24 11:36:49;;;;;;;0.15;0.15;;;27.90;94.80;;;;;;4398487;32;20082;-73
2023/07/24 11:39:22;;;;;;;7.45;0.52;;;27.80;95.20;;;;;;4412018;32;20508;-75
2023/07/24 11:41:48;;;;;;;0.60;0.25;;;27.90;95.20;;;;;;4413378;32;20525;-73
2023/07/24 11:44:16;;;;;;;0.20;0.20;;;28.00;94.80;;;;;;4412259;32;20069;-73
2023/07/24 11:46:43;;;;;;;0.20;0.20;;;27.90;94.70;;;;;;4411176;32;98153;-74
2023/07/24 11:49:08;;;;;;;0.62;0.35;;;27.80;95.20;;;;;;4413310;32;20144;-73
2023/07/24 11:51:36;;;;;;;0.93;0.28;;;27.70;94.80;;;;;;4413333;32;20085;-73
2023/07/24 11:54:07;;;;;;;3.12;0.28;;;28.00;94.90;;;;;;4399350;32;20473;-76
2023/07/24 11:56:32;;;;;;;0.37;0.37;;;28.60;94.00;;;;;;4402899;32;20090;-75
2023/07/24 11:59:09;;;;;;;0.30;0.30;;;28.80;93.60;;;;;;4404906;32;20062;-73
2023/07/24 12:01:34;;;;;;;0.20;0.20;;;28.60;93.90;;;;;;4389035;32;20074;-73
2023/07/24 12:04:00;;;;;;;0.47;0.10;;;28.50;93.50;;;;;;4396869;32;20435;-74
2023/07/24 12:06:26;;;;;;;0.52;0.50;;;28.20;93.50;;;;;;4402858;32;20065;-74
2023/07/24 12:09:00;;;;;;;0.00;0.00;;;27.90;93.80;;;;;;4413832;32;20066;-75
2023/07/24 12:11:26;;;;;;;0.30;0.30;;;27.70;93.80;;;;;;4407195;32;20138;-74
2023/07/24 12:13:53;;;;;;;0.22;0.22;;;27.40;94.00;;;;;;4403470;32;20600;-74
2023/07/24 12:16:20;;;;;;;0.45;0.28;;;27.30;94.50;;;;;;4413283;32;20069;-74
2023/07/24 12:18:45;;;;;;;0.37;0.37;;;27.20;94.60;;;;;;4396673;32;20142;-73
2023/07/24 12:21:10;;;;;;;0.15;0.15;;;27.30;94.20;;;;;;4412474;32;20058;-74
2023/07/24 12:23:36;;;;;;;0.10;0.10;;;27.20;94.40;;;;;;4410376;32;20049;-75
2023/07/24 12:26:01;;;;;;;0.10;0.10;;;26.90;96.40;;;;;;4398734;32;20066;-74
2023/07/24 12:28:27;;;;;;;0.10;0.10;;;26.60;97.30;;;;;;4403820;32;20062;-74
2023/07/24 12:30:53;;;;;;;1.65;0.95;;;26.40;98.10;;;;;;4412688;32;20404;-75
2023/07/24 12:33:23;;;;;;;0.10;0.10;;;25.90;98.90;;;;;;4412069;32;20061;-73
2023/07/24 12:35:49;;;;;;;1.20;0.40;;;25.60;99.60;;;;;;4412544;32;20057;-73
2023/07/24 12:38:14;;;;;;;1.45;0.40;;;25.50;99.90;;;;;;4409274;32;20124;-73
2023/07/24 12:40:39;;;;;;;0.20;0.20;;;25.50;99.90;;;;;;4408322;32;20517;-74
2023/07/24 12:43:05;;;;;;;0.55;0.55;;;25.50;99.90;;;;;;4398669;32;20074;-75